Time;durP1;ratioP1;P1;durP2;ratioP2;P2;SDS_P1;SDS_P2;PMS_P1;PMS_P2;Temp;Humidity;BMP_temperature;BMP_pressure;BME280_temperature;BME280_humidity;BME280_pressure;Samples;Min_cycle;Max_cycle;Signal;HPM_P1;HPM_P2
2023/07/19 00:00:09;;;;;;;10.73;3.97;;;21.10;1.00;;;;;;5037165;28;20381;-69
2023/07/19 00:02:35;;;;;;;9.10;4.10;;;21.10;1.00;;;;;;5037959;28;20455;-69
2023/07/19 00:05:00;;;;;;;11.60;3.55;;;21.10;1.00;;;;;;5036957;28;20386;-69
2023/07/19 00:07:26;;;;;;;9.77;3.72;;;21.20;1.00;;;;;;5036722;28;20397;-69
2023/07/19 00:09:51;;;;;;;8.20;3.40;;;21.10;1.00;;;;;;5036641;28;20408;-69
2023/07/19 00:12:17;;;;;;;12.05;3.97;;;21.00;1.00;;;;;;5038325;28;20445;-69
2023/07/19 00:14:42;;;;;;;9.40;3.63;;;21.10;1.00;;;;;;5037968;28;20459;-69
2023/07/19 00:17:08;;;;;;;11.60;3.60;;;21.20;1.00;;;;;;5034786;28;20397;-69
2023/07/19 00:19:33;;;;;;;10.63;3.78;;;21.10;1.00;;;;;;5037430;28;20835;-69
2023/07/19 00:21:59;;;;;;;10.15;3.90;;;21.00;1.00;;;;;;5035711;28;20474;-69
2023/07/19 00:24:25;;;;;;;12.10;3.63;;;21.10;1.00;;;;;;5037639;28;20432;-69
2023/07/19 00:26:50;;;;;;;10.98;4.40;;;21.10;1.00;;;;;;5037224;28;20383;-69
2023/07/19 00:29:15;;;;;;;8.73;3.40;;;21.10;1.00;;;;;;5035842;28;20399;-69
2023/07/19 00:31:41;;;;;;;10.03;3.67;;;21.10;1.00;;;;;;5038097;28;20390;-69
2023/07/19 00:34:07;;;;;;;12.40;3.57;;;21.10;1.00;;;;;;5036145;28;20919;-69
2023/07/19 00:36:32;;;;;;;9.67;3.40;;;20.90;1.00;;;;;;5036039;28;20478;-69
2023/07/19 00:38:58;;;;;;;8.53;3.57;;;20.80;1.00;;;;;;5035258;28;20488;-69
2023/07/19 00:41:24;;;;;;;11.10;3.60;;;20.70;1.00;;;;;;5037248;28;20746;-69
2023/07/19 00:43:50;;;;;;;9.30;3.20;;;20.70;1.00;;;;;;5034743;28;20417;-69
2023/07/19 00:46:17;;;;;;;13.63;4.30;;;20.60;1.00;;;;;;5037524;28;20385;-69
2023/07/19 00:48:42;;;;;;;8.55;3.40;;;20.60;1.00;;;;;;5034856;28;20450;-69
2023/07/19 00:51:09;;;;;;;11.00;3.10;;;20.50;1.00;;;;;;5036827;28;20399;-69
2023/07/19 00:53:36;;;;;;;8.93;3.00;;;20.40;1.00;;;;;;5036510;28;20394;-68
2023/07/19 00:56:03;;;;;;;8.48;3.20;;;20.40;1.00;;;;;;5038075;28;20403;-69
2023/07/19 00:58:29;;;;;;;10.25;3.15;;;20.40;1.00;;;;;;5041238;28;20959;-69
2023/07/19 01:00:55;;;;;;;8.50;3.42;;;20.40;1.00;;;;;;5037733;28;20486;-69
2023/07/19 01:03:20;;;;;;;11.27;3.40;;;20.30;1.00;;;;;;5037886;28;20415;-69
2023/07/19 01:05:46;;;;;;;13.40;3.75;;;20.30;1.00;;;;;;5040362;28;20482;-69
2023/07/19 01:08:12;;;;;;;9.70;2.90;;;20.40;1.00;;;;;;5038613;28;20922;-69
2023/07/19 01:10:37;;;;;;;9.90;3.60;;;20.50;1.00;;;;;;5040939;28;20435;-69
2023/07/19 01:13:08;;;;;;;10.05;3.80;;;20.40;1.00;;;;;;5039562;28;20410;-69
2023/07/19 01:15:34;;;;;;;9.07;3.60;;;20.40;1.00;;;;;;5039027;28;20401;-70
2023/07/19 01:18:00;;;;;;;9.10;3.90;;;20.30;1.00;;;;;;5040297;28;20421;-70
2023/07/19 01:20:26;;;;;;;9.68;4.03;;;20.40;1.00;;;;;;5027753;28;20407;-70
2023/07/19 01:22:51;;;;;;;12.30;3.45;;;20.40;1.00;;;;;;5038879;28;20869;-68
2023/07/19 01:25:17;;;;;;;12.97;3.77;;;20.40;1.00;;;;;;5041066;28;20399;-69
2023/07/19 01:27:42;;;;;;;11.20;3.47;;;20.40;1.00;;;;;;5039529;28;20524;-69
2023/07/19 01:30:08;;;;;;;12.00;3.53;;;20.40;1.00;;;;;;5039325;28;20886;-69
2023/07/19 01:32:34;;;;;;;11.77;3.65;;;20.40;1.00;;;;;;5040023;28;20391;-69
2023/07/19 01:34:59;;;;;;;9.50;3.10;;;20.40;1.00;;;;;;5038912;28;20441;-69
2023/07/19 01:37:27;;;;;;;10.48;3.78;;;20.40;1.00;;;;;;5040148;28;20465;-69
2023/07/19 01:39:52;;;;;;;8.38;3.25;;;20.40;1.00;;;;;;5040932;28;20393;-69
2023/07/19 01:42:18;;;;;;;11.53;3.70;;;20.20;1.00;;;;;;5043391;28;20386;-68
2023/07/19 01:44:43;;;;;;;10.87;3.73;;;20.20;1.00;;;;;;5041996;28;20392;-68
2023/07/19 01:47:09;;;;;;;8.93;3.00;;;20.20;1.00;;;;;;5039485;28;20389;-69
2023/07/19 01:49:35;;;;;;;11.73;3.17;;;20.10;1.00;;;;;;5040771;28;20383;-68
2023/07/19 01:52:01;;;;;;;9.40;3.22;;;20.10;1.00;;;;;;5040312;28;20388;-68
2023/07/19 01:54:26;;;;;;;14.13;3.73;;;20.00;1.00;;;;;;5039057;28;20391;-69
2023/07/19 01:56:52;;;;;;;14.23;3.47;;;19.90;1.00;;;;;;5038361;28;20430;-69
2023/07/19 01:59:17;;;;;;;8.80;2.90;;;19.80;1.00;;;;;;5037525;28;20480;-69
2023/07/19 02:01:44;;;;;;;11.90;4.00;;;19.70;1.00;;;;;;5040359;28;20460;-69
2023/07/19 02:04:09;;;;;;;9.25;3.75;;;19.70;1.00;;;;;;5041041;28;20462;-69
2023/07/19 02:06:35;;;;;;;13.23;4.40;;;19.60;1.00;;;;;;5040897;28;20499;-68
2023/07/19 02:09:00;;;;;;;11.50;3.20;;;19.70;1.00;;;;;;5038018;28;20867;-69
2023/07/19 02:11:26;;;;;;;13.40;4.00;;;19.70;1.00;;;;;;5039725;28;20385;-69
2023/07/19 02:13:51;;;;;;;13.43;3.60;;;19.70;1.00;;;;;;5039354;28;20394;-69
2023/07/19 02:16:17;;;;;;;14.53;3.77;;;19.70;1.00;;;;;;5037742;28;20387;-69
2023/07/19 02:18:42;;;;;;;18.03;3.70;;;19.60;1.00;;;;;;5039699;28;20408;-69
2023/07/19 02:21:08;;;;;;;13.27;4.80;;;19.60;1.00;;;;;;5038724;28;20401;-70
2023/07/19 02:23:34;;;;;;;10.10;4.00;;;19.50;1.00;;;;;;5038130;28;20421;-69
2023/07/19 02:25:59;;;;;;;12.85;3.58;;;19.50;1.00;;;;;;5039300;28;20488;-69
2023/07/19 02:28:25;;;;;;;15.37;4.10;;;19.40;1.00;;;;;;5039077;28;20505;-69
2023/07/19 02:30:50;;;;;;;11.20;3.67;;;19.40;1.00;;;;;;5037219;28;20395;-69
2023/07/19 02:36:38;;;;;;;9.63;3.20;;;19.30;5.50;;;;;;5038293;28;20374;-69
2023/07/19 02:39:04;;;;;;;12.90;3.70;;;19.10;26.80;;;;;;5037938;28;20394;-69
2023/07/19 02:41:30;;;;;;;8.15;3.80;;;19.10;42.90;;;;;;5039471;28;20765;-69
2023/07/19 02:43:56;;;;;;;8.45;3.70;;;19.00;59.70;;;;;;5037974;28;20423;-69
2023/07/19 02:46:22;;;;;;;14.60;3.90;;;19.10;52.70;;;;;;5038156;28;20834;-69
2023/07/19 02:48:47;;;;;;;12.65;4.07;;;19.10;45.30;;;;;;5039082;28;20393;-69
2023/07/19 02:51:13;;;;;;;10.90;3.90;;;19.00;44.40;;;;;;5036876;28;20452;-69
2023/07/19 02:53:39;;;;;;;10.50;4.20;;;18.80;57.90;;;;;;5039477;28;20892;-69
2023/07/19 02:56:04;;;;;;;8.90;3.63;;;18.70;56.70;;;;;;5038708;28;20402;-68
2023/07/19 02:58:30;;;;;;;11.05;4.00;;;18.70;66.50;;;;;;5037216;28;20471;-69
2023/07/19 03:00:56;;;;;;;10.45;4.15;;;18.70;53.70;;;;;;5038589;28;21012;-68
2023/07/19 03:03:21;;;;;;;15.30;4.50;;;18.70;52.30;;;;;;5039634;28;20421;-69
2023/07/19 03:05:47;;;;;;;9.60;4.07;;;18.60;73.30;;;;;;5041731;28;20429;-69
2023/07/19 03:08:12;;;;;;;13.67;4.27;;;18.60;73.60;;;;;;5037539;28;20390;-69
2023/07/19 03:10:39;;;;;;;11.40;3.85;;;18.60;69.90;;;;;;5040496;28;20389;-69
2023/07/19 03:13:04;;;;;;;12.27;3.17;;;18.70;90.80;;;;;;5035820;28;20393;-69
2023/07/19 03:15:32;;;;;;;14.35;3.90;;;18.70;59.40;;;;;;5040540;28;20406;-69
2023/07/19 03:18:02;;;;;;;8.52;3.83;;;18.80;38.60;;;;;;5039579;28;20426;-69
2023/07/19 03:20:28;;;;;;;11.88;4.00;;;18.80;10.10;;;;;;5036207;28;20419;-70
2023/07/19 03:22:55;;;;;;;9.55;4.10;;;18.80;27.60;;;;;;5036430;28;20462;-70
2023/07/19 03:25:20;;;;;;;10.43;4.43;;;18.80;42.40;;;;;;5037055;28;20882;-68
2023/07/19 03:27:46;;;;;;;10.93;4.40;;;18.90;56.50;;;;;;5037980;28;20533;-70
2023/07/19 03:30:12;;;;;;;8.70;3.60;;;19.00;54.40;;;;;;5036418;28;20417;-69
2023/07/19 03:32:37;;;;;;;9.30;3.70;;;19.10;36.90;;;;;;5045523;28;20405;-69
2023/07/19 03:35:04;;;;;;;13.00;3.90;;;19.10;30.80;;;;;;5047662;28;20388;-70
2023/07/19 03:37:29;;;;;;;11.97;4.07;;;19.20;26.70;;;;;;5048280;28;20385;-69
2023/07/19 03:39:55;;;;;;;9.30;3.77;;;19.30;23.90;;;;;;5047634;28;20731;-69
2023/07/19 03:42:20;;;;;;;10.60;4.10;;;19.30;9.10;;;;;;5028599;28;20896;-70
2023/07/19 03:44:46;;;;;;;15.45;4.05;;;19.30;1.30;;;;;;5028172;28;20399;-70
2023/07/19 03:47:11;;;;;;;11.57;3.80;;;19.20;10.50;;;;;;5027961;28;20375;-70
2023/07/19 03:49:37;;;;;;;10.50;3.58;;;19.20;24.50;;;;;;5027924;28;20411;-70
2023/07/19 03:52:03;;;;;;;12.68;4.13;;;19.30;16.00;;;;;;5041931;28;20953;-69
2023/07/19 03:54:28;;;;;;;9.57;3.73;;;19.30;9.80;;;;;;5047349;28;20463;-70
2023/07/19 03:56:54;;;;;;;11.47;4.90;;;19.40;1.00;;;;;;5047414;28;20467;-68
2023/07/19 03:59:19;;;;;;;10.73;4.03;;;19.40;1.00;;;;;;5047989;28;20436;-68
2023/07/19 04:01:45;;;;;;;11.23;4.60;;;19.30;1.00;;;;;;5045951;28;20447;-69
2023/07/19 04:04:10;;;;;;;11.63;4.23;;;19.30;1.00;;;;;;5048542;28;20425;-67
2023/07/19 04:06:36;;;;;;;13.23;4.20;;;19.40;1.00;;;;;;5048138;28;20480;-67
2023/07/19 04:09:01;;;;;;;7.50;3.10;;;19.50;1.00;;;;;;5044795;28;20405;-69
2023/07/19 04:11:28;;;;;;;12.52;3.95;;;19.60;1.00;;;;;;5038836;28;20395;-69
2023/07/19 04:13:54;;;;;;;11.02;3.72;;;19.60;1.00;;;;;;5038764;28;20905;-69
2023/07/19 04:16:20;;;;;;;8.77;3.27;;;19.50;1.00;;;;;;5036989;28;20419;-69
2023/07/19 04:18:46;;;;;;;10.93;4.07;;;19.50;1.00;;;;;;5038058;28;20413;-69
2023/07/19 04:21:12;;;;;;;11.40;3.70;;;19.50;1.00;;;;;;5037282;28;20390;-69
2023/07/19 04:23:37;;;;;;;7.97;3.35;;;19.60;1.00;;;;;;5034152;28;20465;-69
2023/07/19 04:26:05;;;;;;;10.32;3.70;;;19.60;1.00;;;;;;5027359;28;20383;-69
2023/07/19 04:28:31;;;;;;;8.55;3.97;;;19.50;1.00;;;;;;5036664;28;20409;-69
2023/07/19 04:30:57;;;;;;;11.70;3.90;;;19.50;1.00;;;;;;5047390;28;20385;-69
2023/07/19 04:33:22;;;;;;;8.23;3.40;;;19.50;1.00;;;;;;5047364;28;20402;-69
2023/07/19 04:35:50;;;;;;;12.03;3.77;;;19.50;1.00;;;;;;5045723;28;20393;-69
2023/07/19 04:38:16;;;;;;;14.30;4.27;;;19.50;1.00;;;;;;5050204;28;20385;-69
2023/07/19 04:40:41;;;;;;;11.52;3.40;;;19.60;1.00;;;;;;5051111;28;20408;-69
2023/07/19 04:43:07;;;;;;;9.33;3.70;;;19.70;1.00;;;;;;5051061;28;20803;-69
2023/07/19 04:45:33;;;;;;;9.57;3.60;;;19.80;1.00;;;;;;5053806;28;20382;-69
2023/07/19 04:47:58;;;;;;;10.60;3.00;;;19.90;1.00;;;;;;5054612;28;20381;-69
2023/07/19 04:50:24;;;;;;;12.03;4.13;;;20.10;1.00;;;;;;5050984;28;20396;-69
2023/07/19 04:52:51;;;;;;;9.63;3.60;;;20.10;1.00;;;;;;5046676;28;20482;-69
2023/07/19 04:55:16;;;;;;;10.95;3.70;;;20.20;1.00;;;;;;5042694;28;20823;-69
2023/07/19 04:57:42;;;;;;;12.10;4.10;;;20.30;1.00;;;;;;5049909;28;20409;-69
2023/07/19 05:00:11;;;;;;;13.52;3.85;;;20.40;1.00;;;;;;5033842;28;20933;-69
2023/07/19 05:02:38;;;;;;;9.18;3.80;;;20.60;1.00;;;;;;5041398;28;20421;-69
2023/07/19 05:05:05;;;;;;;8.57;3.40;;;21.00;99.90;;;;;;5040344;28;20395;-69
2023/07/19 05:07:33;;;;;;;10.60;3.63;;;21.30;99.90;;;;;;5038948;28;20399;-68
2023/07/19 05:10:00;;;;;;;10.32;3.50;;;21.60;99.90;;;;;;5050330;28;20393;-69
2023/07/19 05:12:25;;;;;;;10.35;3.25;;;22.60;99.90;;;;;;5050456;28;20509;-69
2023/07/19 05:14:51;;;;;;;9.40;3.00;;;23.60;1.00;;;;;;5050172;28;20425;-69
2023/07/19 05:17:17;;;;;;;10.43;3.23;;;24.20;1.00;;;;;;5050481;28;20389;-69
2023/07/19 05:19:42;;;;;;;8.80;3.40;;;24.50;1.00;;;;;;5051167;28;20874;-69
2023/07/19 05:22:10;;;;;;;8.57;3.20;;;24.90;99.90;;;;;;5050744;28;20813;-70
2023/07/19 05:24:36;;;;;;;9.70;3.10;;;25.30;61.90;;;;;;5041760;28;20457;-70
2023/07/19 05:27:02;;;;;;;10.23;3.27;;;25.60;1.00;;;;;;5030510;28;20850;-70
2023/07/19 05:29:28;;;;;;;7.63;3.17;;;26.20;1.00;;;;;;5030264;28;20485;-70
2023/07/19 05:31:53;;;;;;;9.20;3.07;;;27.10;1.00;;;;;;5030053;28;20403;-70
2023/07/19 05:34:19;;;;;;;8.03;2.70;;;28.40;1.00;;;;;;5049728;28;20385;-71
2023/07/19 05:36:44;;;;;;;9.15;2.90;;;29.30;1.00;;;;;;5049920;28;20405;-70
2023/07/19 05:39:10;;;;;;;8.50;3.00;;;29.90;99.90;;;;;;5049756;28;20444;-71
2023/07/19 05:41:36;;;;;;;11.25;3.50;;;29.80;99.90;;;;;;5048236;28;20385;-71
2023/07/19 05:44:02;;;;;;;9.50;3.43;;;29.40;99.90;;;;;;5049186;28;20424;-70
2023/07/19 05:46:27;;;;;;;8.07;2.90;;;29.10;99.90;;;;;;5049723;28;20393;-70
2023/07/19 05:48:53;;;;;;;6.97;2.65;;;29.40;99.90;;;;;;5048318;28;20411;-71
2023/07/19 05:51:19;;;;;;;9.80;2.73;;;29.80;99.90;;;;;;5050655;28;20393;-71
2023/07/19 05:53:44;;;;;;;8.15;3.47;;;30.60;99.90;;;;;;5054492;28;21205;-70
2023/07/19 05:56:10;;;;;;;7.90;2.70;;;30.80;99.90;;;;;;5052801;28;20465;-70
2023/07/19 05:58:36;;;;;;;9.00;3.10;;;30.60;99.90;;;;;;5051674;28;20382;-70
2023/07/19 06:01:04;;;;;;;6.75;2.35;;;30.80;99.90;;;;;;5052418;28;20386;-70
2023/07/19 06:03:29;;;;;;;11.77;2.95;;;31.20;99.90;;;;;;5050101;28;20915;-71
2023/07/19 06:05:55;;;;;;;7.72;2.65;;;31.90;99.90;;;;;;5049729;28;20466;-71
2023/07/19 06:08:20;;;;;;;8.30;2.70;;;31.80;99.90;;;;;;5049443;28;20461;-71
2023/07/19 06:10:46;;;;;;;9.07;2.70;;;31.70;99.90;;;;;;5065442;28;20400;-71
2023/07/19 06:13:14;;;;;;;7.10;2.55;;;31.60;99.90;;;;;;5068735;28;21015;-71
2023/07/19 06:15:40;;;;;;;8.00;2.90;;;31.70;99.90;;;;;;5049618;28;20865;-71
2023/07/19 06:18:05;;;;;;;8.07;2.77;;;31.90;99.90;;;;;;5049137;28;20410;-70
2023/07/19 06:20:31;;;;;;;7.57;2.73;;;32.50;99.90;;;;;;5049445;28;20401;-71
2023/07/19 06:22:57;;;;;;;9.40;2.90;;;32.30;99.90;;;;;;5059865;28;20450;-71
2023/07/19 06:25:22;;;;;;;13.70;3.35;;;32.60;99.90;;;;;;5068863;28;20453;-71
2023/07/19 06:27:48;;;;;;;10.87;3.10;;;32.60;99.90;;;;;;5068839;28;20391;-71
2023/07/19 06:30:13;;;;;;;8.23;3.13;;;33.20;99.90;;;;;;5069543;28;20403;-71
2023/07/19 06:32:39;;;;;;;8.53;2.60;;;33.70;99.90;;;;;;5069192;28;20388;-71
2023/07/19 06:35:05;;;;;;;7.50;2.70;;;33.90;99.90;;;;;;5069299;28;20405;-71
2023/07/19 06:37:34;;;;;;;7.18;2.60;;;34.10;99.90;;;;;;5069241;28;20454;-71
2023/07/19 06:40:03;;;;;;;7.57;2.50;;;34.60;99.90;;;;;;5057979;28;20400;-71
2023/07/19 06:42:28;;;;;;;8.27;2.70;;;35.40;99.90;;;;;;5048370;28;20393;-71
2023/07/19 06:44:56;;;;;;;6.90;2.50;;;35.60;99.90;;;;;;5049304;28;20419;-71
2023/07/19 06:47:21;;;;;;;6.95;2.58;;;35.40;99.90;;;;;;5048672;28;21106;-71
2023/07/19 06:49:47;;;;;;;7.50;2.60;;;34.50;99.90;;;;;;5048528;28;20398;-71
2023/07/19 06:52:12;;;;;;;7.82;2.10;;;34.40;99.90;;;;;;5049335;28;21028;-70
2023/07/19 06:54:39;;;;;;;7.00;2.70;;;33.70;99.90;;;;;;5048396;28;20381;-71
2023/07/19 06:57:05;;;;;;;8.90;2.83;;;33.60;99.90;;;;;;5048328;28;20401;-71
2023/07/19 06:59:31;;;;;;;14.80;3.15;;;34.20;99.90;;;;;;5048755;28;20381;-71
2023/07/19 07:01:56;;;;;;;11.20;2.70;;;34.80;99.90;;;;;;5048378;28;20920;-71
2023/07/19 07:04:22;;;;;;;7.93;2.47;;;35.50;99.90;;;;;;5049195;28;20467;-71
2023/07/19 07:06:47;;;;;;;9.73;3.08;;;35.00;99.90;;;;;;5049792;28;20465;-71
2023/07/19 07:11:48;;;;;;;8.30;2.75;;;34.70;99.90;;;;;;4626274;22;20446;-69
2023/07/19 07:14:14;;;;;;;9.63;2.70;;;35.00;99.90;;;;;;5068915;28;20426;-68
2023/07/19 07:16:39;;;;;;;6.90;2.28;;;33.80;99.90;;;;;;5068713;28;20398;-68
2023/07/19 07:19:05;;;;;;;7.40;2.80;;;33.60;99.90;;;;;;5069451;28;20437;-68
2023/07/19 07:21:31;;;;;;;9.80;2.07;;;33.00;99.90;;;;;;5088298;28;20535;-69
2023/07/19 07:23:56;;;;;;;6.80;2.35;;;33.00;99.90;;;;;;5088402;28;20425;-69
2023/07/19 07:26:22;;;;;;;6.53;1.83;;;33.30;99.90;;;;;;5088303;28;20401;-69
2023/07/19 07:28:47;;;;;;;8.80;2.30;;;32.30;99.90;;;;;;5077219;28;20391;-70
2023/07/19 07:31:13;;;;;;;8.80;1.83;;;32.50;99.90;;;;;;5067968;28;20489;-69
2023/07/19 07:33:39;;;;;;;7.00;1.90;;;31.50;99.90;;;;;;5068052;28;20394;-69
2023/07/19 07:36:04;;;;;;;6.40;1.90;;;31.20;99.90;;;;;;5068477;28;20388;-69
2023/07/19 07:38:30;;;;;;;6.80;2.00;;;31.80;99.90;;;;;;5068236;28;20392;-69
2023/07/19 07:41:04;;;;;;;7.50;2.10;;;32.50;99.90;;;;;;5067735;28;20400;-69
2023/07/19 07:43:30;;;;;;;9.70;1.90;;;33.70;99.90;;;;;;5068502;28;20423;-69
2023/07/19 07:45:56;;;;;;;5.65;1.85;;;34.00;99.90;;;;;;5067809;28;20392;-69
2023/07/19 07:48:22;;;;;;;6.23;1.93;;;33.70;99.90;;;;;;5068508;28;20376;-69
2023/07/19 07:50:52;;;;;;;6.20;1.75;;;32.90;99.90;;;;;;5068195;28;20437;-69
2023/07/19 07:53:21;;;;;;;6.35;2.00;;;32.60;99.90;;;;;;5068020;28;20390;-70
2023/07/19 07:55:48;;;;;;;8.70;2.30;;;32.90;99.90;;;;;;5067723;28;20391;-70
2023/07/19 07:58:14;;;;;;;7.35;2.10;;;33.10;99.90;;;;;;5068186;28;20398;-69
2023/07/19 08:00:40;;;;;;;7.30;2.20;;;32.70;99.90;;;;;;5067994;28;20400;-69
2023/07/19 08:03:06;;;;;;;10.57;1.70;;;32.80;99.90;;;;;;5067916;28;20824;-69
2023/07/19 08:05:32;;;;;;;6.00;1.90;;;33.40;99.90;;;;;;5068161;28;20430;-68
2023/07/19 08:07:58;;;;;;;5.55;1.40;;;33.60;99.90;;;;;;5068141;28;20503;-68
2023/07/19 08:10:23;;;;;;;6.38;1.90;;;34.30;99.90;;;;;;5068050;28;20852;-68
2023/07/19 08:12:49;;;;;;;6.00;1.55;;;34.20;99.90;;;;;;5068246;28;20779;-69
2023/07/19 08:15:14;;;;;;;6.87;1.87;;;34.10;99.90;;;;;;5072098;28;20446;-69
2023/07/19 08:17:40;;;;;;;6.00;2.00;;;34.20;99.90;;;;;;5071661;28;20951;-69
2023/07/19 08:20:09;;;;;;;6.60;1.60;;;34.00;99.90;;;;;;5071887;28;20391;-69
2023/07/19 08:22:35;;;;;;;7.40;1.92;;;34.30;99.90;;;;;;5071700;28;20441;-68
2023/07/19 08:25:01;;;;;;;6.90;1.70;;;;;;;;;;5071181;28;20608;-69
2023/07/19 08:27:27;;;;;;;5.93;1.50;;;35.60;99.90;;;;;;5071543;28;20380;-69
2023/07/19 08:29:52;;;;;;;6.30;1.60;;;35.80;99.90;;;;;;5072045;28;20398;-69
2023/07/19 08:32:19;;;;;;;5.80;1.60;;;35.50;99.90;;;;;;5071941;28;20733;-69
2023/07/19 08:34:45;;;;;;;6.70;1.50;;;36.00;99.90;;;;;;5071813;28;20502;-69
2023/07/19 08:37:10;;;;;;;8.10;1.93;;;36.90;99.90;;;;;;5071554;28;20400;-69
2023/07/19 08:39:36;;;;;;;5.40;1.37;;;37.60;99.90;;;;;;5070824;28;20394;-69
2023/07/19 08:42:03;;;;;;;5.60;1.30;;;36.00;99.90;;;;;;5071774;28;20376;-69
2023/07/19 08:44:29;;;;;;;5.90;1.40;;;35.20;99.90;;;;;;5071264;28;20415;-68
2023/07/19 08:46:54;;;;;;;5.85;1.23;;;35.20;99.90;;;;;;5071246;28;20879;-68
2023/07/19 08:49:20;;;;;;;5.60;1.30;;;35.70;99.90;;;;;;5071780;28;20414;-69
2023/07/19 08:51:47;;;;;;;6.10;1.53;;;36.30;99.90;;;;;;5071389;28;20517;-69
2023/07/19 08:54:13;;;;;;;6.10;1.60;;;35.80;99.90;;;;;;5070632;28;20445;-69
2023/07/19 08:56:40;;;;;;;6.82;1.40;;;35.10;99.90;;;;;;5071373;28;20410;-69
2023/07/19 08:59:06;;;;;;;5.83;1.10;;;35.30;99.90;;;;;;5071088;28;20387;-69
2023/07/19 09:01:33;;;;;;;5.70;1.60;;;35.90;99.90;;;;;;5071187;28;20387;-69
2023/07/19 09:03:58;;;;;;;6.88;1.55;;;36.70;99.90;;;;;;5070979;28;20415;-69
2023/07/19 09:06:27;;;;;;;6.55;1.48;;;37.30;99.90;;;;;;5071417;28;20376;-69
2023/07/19 09:08:54;;;;;;;7.78;1.40;;;36.80;99.90;;;;;;5071263;28;20404;-69
2023/07/19 09:11:21;;;;;;;7.10;1.33;;;37.10;99.90;;;;;;5072298;28;20449;-68
2023/07/19 09:13:54;;;;;;;5.65;1.50;;;37.80;99.90;;;;;;5070975;28;20470;-70
2023/07/19 09:16:32;;;;;;;6.82;1.30;;;39.00;99.90;;;;;;5071016;28;20395;-69
2023/07/19 09:18:59;;;;;;;8.60;1.50;;;37.90;99.90;;;;;;5070506;28;20383;-69
2023/07/19 09:21:36;;;;;;;7.10;1.80;;;37.70;99.90;;;;;;5070227;28;20388;-69
2023/07/19 09:24:05;;;;;;;6.05;1.92;;;37.50;99.90;;;;;;5070279;28;20553;-69
2023/07/19 09:26:50;;;;;;;6.30;1.20;;;37.60;99.90;;;;;;5070569;28;20384;-69
2023/07/19 09:29:17;;;;;;;10.50;1.50;;;37.60;99.90;;;;;;5070481;28;20387;-69
2023/07/19 09:32:15;;;;;;;6.20;1.50;;;38.00;99.90;;;;;;5070449;28;20388;-69
2023/07/19 09:34:40;;;;;;;5.97;1.60;;;38.10;99.90;;;;;;5014804;28;21052;-69
2023/07/19 09:37:06;;;;;;;5.60;1.50;;;38.00;99.90;;;;;;5070216;28;20391;-69
2023/07/19 09:39:34;;;;;;;6.00;1.10;;;38.00;99.90;;;;;;5070912;28;20379;-69
2023/07/19 09:42:01;;;;;;;6.10;1.40;;;39.70;99.90;;;;;;5070195;28;20475;-69
2023/07/19 09:44:27;;;;;;;6.30;1.70;;;40.20;99.90;;;;;;5070314;28;20408;-69
2023/07/19 09:46:54;;;;;;;5.75;1.58;;;40.50;99.90;;;;;;5071149;28;20398;-69
2023/07/19 09:49:19;;;;;;;6.00;1.30;;;38.50;99.90;;;;;;5070903;28;20478;-69
2023/07/19 09:51:47;;;;;;;6.35;1.45;;;37.70;99.90;;;;;;5070388;28;20571;-69
2023/07/19 09:54:14;;;;;;;5.18;1.20;;;37.30;99.90;;;;;;5070577;28;20441;-69
2023/07/19 09:56:41;;;;;;;5.28;1.20;;;38.30;99.90;;;;;;5070219;28;20403;-70
2023/07/19 09:59:18;;;;;;;5.35;1.33;;;38.50;99.90;;;;;;5070160;28;20396;-70
2023/07/19 10:01:44;;;;;;;6.03;1.52;;;37.90;99.90;;;;;;5070736;28;20392;-69
2023/07/19 10:04:28;;;;;;;6.75;1.40;;;38.20;99.90;;;;;;5070051;28;20419;-69
2023/07/19 10:07:21;;;;;;;5.83;1.40;;;38.20;99.90;;;;;;5070290;28;20392;-69
2023/07/19 10:09:49;;;;;;;6.40;1.23;;;38.10;99.90;;;;;;5051940;28;20482;-69
2023/07/19 10:12:15;;;;;;;5.70;1.52;;;37.00;99.90;;;;;;5070156;28;20411;-69
2023/07/19 10:14:50;;;;;;;5.90;1.40;;;37.70;99.90;;;;;;5070038;28;20803;-68
2023/07/19 10:17:16;;;;;;;7.28;1.38;;;38.30;99.90;;;;;;5053616;28;20391;-69
2023/07/19 10:19:57;;;;;;;5.50;1.20;;;39.00;99.90;;;;;;5069285;28;20499;-70
2023/07/19 10:22:49;;;;;;;5.70;1.40;;;38.70;99.90;;;;;;5070147;28;20396;-69
2023/07/19 10:25:20;;;;;;;6.60;1.60;;;38.80;99.90;;;;;;5069277;28;20408;-69
2023/07/19 10:27:58;;;;;;;6.10;1.70;;;39.20;99.90;;;;;;5069598;28;20431;-69
2023/07/19 10:30:55;;;;;;;6.00;1.17;;;39.10;99.90;;;;;;5051254;28;20434;-69
2023/07/19 10:33:25;;;;;;;5.90;1.50;;;39.60;99.90;;;;;;5070592;28;20879;-69
2023/07/19 10:35:53;;;;;;;6.88;1.50;;;38.20;99.90;;;;;;5068744;28;20399;-69
2023/07/19 10:38:24;;;;;;;6.35;1.70;;;35.30;99.90;;;;;;5069450;28;21107;-70
2023/07/19 10:40:57;;;;;;;5.80;1.50;;;34.80;99.90;;;;;;5069747;28;20423;-69
2023/07/19 10:43:27;;;;;;;6.60;1.80;;;34.10;99.90;;;;;;5069698;28;20600;-68
2023/07/19 10:45:55;;;;;;;5.60;1.10;;;33.30;99.90;;;;;;5069350;28;20398;-68
2023/07/19 10:48:27;;;;;;;5.43;1.40;;;33.00;99.90;;;;;;5069530;28;20383;-68
2023/07/19 10:50:57;;;;;;;6.57;1.75;;;33.20;99.90;;;;;;5069600;28;20879;-69
2023/07/19 10:53:24;;;;;;;6.20;1.63;;;33.50;99.90;;;;;;5068990;28;20400;-69
2023/07/19 10:55:58;;;;;;;5.32;1.25;;;33.40;99.90;;;;;;5051009;28;20984;-69
2023/07/19 10:58:25;;;;;;;8.03;1.40;;;33.40;99.90;;;;;;5069854;28;20880;-69
2023/07/19 11:00:56;;;;;;;6.50;1.50;;;32.80;99.90;;;;;;5069378;28;20483;-69
2023/07/19 11:03:26;;;;;;;5.93;1.70;;;32.20;99.90;;;;;;5068738;28;20810;-69
2023/07/19 11:05:53;;;;;;;6.63;1.63;;;32.20;99.90;;;;;;5068713;28;20422;-69
2023/07/19 11:08:29;;;;;;;5.50;1.30;;;32.60;99.90;;;;;;5068464;28;20438;-69
2023/07/19 11:10:57;;;;;;;8.40;1.50;;;32.80;99.90;;;;;;5068296;28;20391;-69
2023/07/19 11:13:24;;;;;;;5.65;2.05;;;32.50;99.90;;;;;;5068752;28;21009;-69
2023/07/19 11:15:54;;;;;;;6.60;1.60;;;32.60;99.90;;;;;;5069558;28;20379;-69
2023/07/19 11:18:23;;;;;;;6.30;1.70;;;32.60;99.90;;;;;;5068801;28;20378;-69
2023/07/19 11:20:49;;;;;;;6.90;2.00;;;32.80;99.90;;;;;;5085946;28;20414;-68
2023/07/19 11:23:15;;;;;;;7.00;2.20;;;32.80;99.90;;;;;;5088087;28;20834;-68
2023/07/19 11:25:41;;;;;;;5.90;1.60;;;33.10;99.90;;;;;;5088364;28;20386;-69
2023/07/19 11:28:07;;;;;;;6.00;1.83;;;32.70;99.90;;;;;;5088411;28;20422;-69
2023/07/19 11:30:40;;;;;;;5.30;1.60;;;32.80;99.90;;;;;;5087784;28;20393;-69
2023/07/19 11:33:08;;;;;;;6.30;1.80;;;32.80;99.90;;;;;;5087995;28;20382;-69
2023/07/19 11:35:34;;;;;;;6.40;1.80;;;33.20;99.90;;;;;;5088546;28;20489;-69
2023/07/19 11:38:00;;;;;;;7.17;1.67;;;33.20;99.90;;;;;;5088501;28;20477;-69
2023/07/19 11:40:26;;;;;;;6.47;1.85;;;33.20;99.90;;;;;;5088114;28;20374;-69
2023/07/19 11:42:57;;;;;;;7.05;2.00;;;32.80;99.90;;;;;;5088983;28;20447;-69
2023/07/19 11:45:27;;;;;;;6.57;1.75;;;32.80;99.90;;;;;;5088881;28;20377;-69
2023/07/19 11:47:59;;;;;;;7.10;1.90;;;32.40;99.90;;;;;;5088673;28;20385;-69
2023/07/19 11:50:25;;;;;;;9.80;1.67;;;31.80;99.90;;;;;;5088177;28;20467;-69
2023/07/19 11:52:59;;;;;;;7.90;2.33;;;31.60;99.90;;;;;;5088218;28;20917;-69
2023/07/19 11:55:25;;;;;;;8.20;2.38;;;30.70;99.90;;;;;;5088150;28;20459;-69
2023/07/19 11:57:52;;;;;;;6.90;2.10;;;30.30;99.90;;;;;;5088703;28;20390;-68
2023/07/19 12:00:20;;;;;;;5.80;1.52;;;30.10;99.90;;;;;;5088005;28;20382;-69
2023/07/19 12:02:47;;;;;;;7.30;1.90;;;30.30;99.90;;;;;;5087804;28;20409;-69
2023/07/19 12:05:15;;;;;;;8.25;1.90;;;30.80;99.90;;;;;;5087998;28;20450;-69
2023/07/19 12:07:41;;;;;;;8.40;2.70;;;31.30;99.90;;;;;;5088358;28;20754;-69
2023/07/19 12:10:07;;;;;;;6.17;1.70;;;31.20;99.90;;;;;;5088042;28;20389;-69
2023/07/19 12:12:33;;;;;;;5.82;1.45;;;31.10;99.90;;;;;;5087539;28;20417;-69
2023/07/19 12:15:08;;;;;;;8.20;2.30;;;31.20;99.90;;;;;;5087460;28;20886;-69
2023/07/19 12:17:36;;;;;;;6.35;1.90;;;31.70;99.90;;;;;;5087638;28;20390;-69
2023/07/19 12:20:03;;;;;;;5.88;1.60;;;32.00;99.90;;;;;;5075985;28;20407;-69
2023/07/19 12:22:30;;;;;;;6.45;1.75;;;32.70;99.90;;;;;;5067247;28;20388;-69
2023/07/19 12:24:58;;;;;;;7.60;1.90;;;33.20;99.90;;;;;;5066986;28;20409;-69
2023/07/19 12:27:24;;;;;;;7.20;1.60;;;33.50;99.90;;;;;;5067863;28;20482;-70
2023/07/19 12:29:49;;;;;;;7.47;2.30;;;33.40;99.90;;;;;;5067592;28;20948;-70
2023/07/19 12:32:15;;;;;;;9.07;2.20;;;33.20;99.90;;;;;;5067635;28;20561;-69
2023/07/19 12:34:41;;;;;;;8.55;2.17;;;32.70;99.90;;;;;;5067169;28;20388;-69
2023/07/19 12:37:07;;;;;;;6.28;1.67;;;32.70;99.90;;;;;;5067320;28;20402;-70
2023/07/19 12:39:32;;;;;;;7.88;1.80;;;32.60;99.90;;;;;;5067321;28;20784;-69
2023/07/19 12:41:58;;;;;;;9.20;1.90;;;32.50;99.90;;;;;;5066989;28;20903;-69
2023/07/19 12:44:24;;;;;;;6.20;2.10;;;32.50;99.90;;;;;;5067307;28;20407;-69
2023/07/19 12:46:50;;;;;;;6.85;2.00;;;32.70;99.90;;;;;;5067313;28;20387;-69
2023/07/19 12:49:18;;;;;;;6.80;2.00;;;32.80;99.90;;;;;;5067553;28;20733;-69
2023/07/19 12:51:45;;;;;;;6.00;1.95;;;32.80;99.90;;;;;;5067116;28;20428;-69